KHQM/HQM METAR and TAF weather

Enter ICAO airport designator
Station Type Date Time Source
KHQM METAR 2021/05/17 21:53 UTC NOAA

KHQM 172153Z AUTO 21012KT 8SM SCT008 BKN013 OVC020 11/11 A3000 RMK AO2 RAB23E40 SLP162 P0000 T01110111


Station Type Date Time Source
KHQM Decoded METAR 2021/05/17 21:53 UTC NOAA

HOQUIAM BOWERMAN AIRPORT, WA, United States (KHQM) 46-58N 123-56W 7M
May 17, 2021 - 05:53 PM EDT / 2021.05.17 2153 UTC
Wind: from the SSW (210 degrees) at 14 MPH (12 KT):0
Visibility: 8 mile(s):0
Sky conditions: overcast
Precipitation last hour: A trace
Temperature: 52.0 F (11.1 C)
Dew Point: 52.0 F (11.1 C)
Relative Humidity: 100%
Pressure (altimeter): 30 in. Hg (1015 hPa)
ob: KHQM 172153Z AUTO 21012KT 8SM SCT008 BKN013 OVC020 11/11 A3000 RMK AO2 RAB23E40 SLP162 P0000 T01110111
cycle: 22

Station Type Date Time Source
KHQM TAF 2021/05/17 18:24 UTC NOAA

TAF KHQM 171722Z 1718/1818 24010KT P6SM BKN018 BKN040
FM172100 22013KT P6SM SCT020 BKN030
FM172300 21015G25KT 6SM -RA BR OVC017
FM180400 23018G29KT 6SM -SHRA BR OVC012
FM180900 22011KT P6SM VCSH BKN030

Example: see airport list